Time;durP1;ratioP1;P1;durP2;ratioP2;P2;SDS_P1;SDS_P2;PMS_P1;PMS_P2;Temp;Humidity;BMP_temperature;BMP_pressure;BME280_temperature;BME280_humidity;BME280_pressure;Samples;Min_cycle;Max_cycle;Signal;HPM_P1;HPM_P2
2022/05/08 00:02:11;;;;;;;1.38;1.27;;;;;;;9.25;58.30;100407.00;5127868;27;19923;-88
2022/05/08 00:04:36;;;;;;;;;;;;;;;9.45;57.98;100427.22;5128909;27;20029;-88
2022/05/08 00:07:02;;;;;;;;;;;;;;;9.26;58.09;100418.41;5128074;27;19918;-88
2022/05/08 00:09:28;;;;;;;1.15;1.00;;;;;;;8.82;59.25;100414.78;5128008;27;19945;-89
2022/05/08 00:11:53;;;;;;;;;;;;;;;8.85;59.17;100420.06;5128625;27;20034;-86
2022/05/08 00:14:19;;;;;;;;;;;;;;;8.94;59.23;100417.47;5128077;27;19911;-87
2022/05/08 00:16:44;;;;;;;0.95;0.95;;;;;;;9.12;58.66;100400.81;5127886;27;19915;-87
2022/05/08 00:19:09;;;;;;;;;;;;;;;9.17;59.04;100407.88;5109568;28;20101;-88
2022/05/08 00:21:35;;;;;;;;;;;;;;;9.00;59.45;100408.69;5127935;28;20388;-88
2022/05/08 00:24:00;;;;;;;0.57;0.57;;;;;;;8.89;59.61;100374.44;5109414;28;20342;-88
2022/05/08 00:26:26;;;;;;;;;;;;;;;9.14;59.28;100411.34;5128144;28;20035;-88
2022/05/08 00:28:51;;;;;;;0.55;0.55;;;;;;;8.98;58.75;100388.53;5127459;28;19924;-88
2022/05/08 00:31:16;;;;;;;;;;;;;;;9.03;58.56;100413.97;5109418;28;20028;-87
2022/05/08 00:33:42;;;;;;;1.55;1.10;;;;;;;9.05;58.97;100399.06;5108610;28;19921;-87
2022/05/08 00:36:08;;;;;;;;;;;;;;;9.08;59.30;100401.72;5127714;28;20028;-88
2022/05/08 00:38:34;;;;;;;2.75;1.33;;;;;;;8.95;58.81;100363.06;5127541;28;19919;-88
2022/05/08 00:40:59;;;;;;;;;;;;;;;9.14;59.61;100399.09;5127781;28;20507;-87
2022/05/08 00:43:32;;;;;;;;;;;;;;;9.09;59.45;100399.94;5108468;28;19968;-88
2022/05/08 00:46:06;;;;;;;2.25;0.77;;;;;;;9.12;59.03;100394.69;5127086;28;19919;-87
2022/05/08 00:48:32;;;;;;;2.03;0.93;;;;;;;8.93;59.52;100367.47;5127390;28;20026;-88
2022/05/08 00:51:00;;;;;;;3.03;1.13;;;;;;;8.96;59.13;100362.22;5127633;27;20075;-88
2022/05/08 00:53:28;;;;;;;2.70;1.15;;;;;;;9.09;59.58;100406.09;5130254;27;20023;-87
2022/05/08 00:55:55;;;;;;;1.63;1.52;;;;;;;8.83;59.93;100366.53;5131673;27;20050;-89
2022/05/08 00:58:20;;;;;;;1.02;0.93;;;;;;;8.98;60.28;100394.66;5131512;27;20031;-87
2022/05/08 01:00:46;;;;;;;;;;;;;;;8.78;60.83;100397.22;5131447;27;20027;-88
2022/05/08 01:03:12;;;;;;;0.65;0.65;;;;;;;8.83;60.54;100368.31;5131369;27;19922;-87
2022/05/08 01:05:41;;;;;;;;;;;;;;;8.89;60.94;100399.91;5131669;27;20039;-88
2022/05/08 01:08:08;;;;;;;0.82;0.82;;;;;;;8.67;61.02;100365.63;5131074;27;20444;-87
2022/05/08 01:10:37;;;;;;;1.35;1.25;;;;;;;8.68;60.70;100361.22;5130889;27;20058;-89
2022/05/08 01:13:04;;;;;;;1.55;1.23;;;;;;;8.89;60.94;100386.75;5131196;27;20091;-89
2022/05/08 01:15:39;;;;;;;1.02;1.02;;;;;;;8.76;60.62;100367.41;5130938;27;20496;-87
2022/05/08 01:18:05;;;;;;;0.88;0.88;;;;;;;8.93;61.08;100393.78;5130731;27;20039;-88
2022/05/08 01:20:30;;;;;;;;;;;;;;;8.88;60.88;100411.28;5131649;27;20057;-87
2022/05/08 01:22:56;;;;;;;0.70;0.70;;;;;;;8.76;61.87;100393.72;5130703;27;20387;-87
2022/05/08 01:25:21;;;;;;;1.08;1.08;;;;;;;8.60;62.17;100390.13;5130932;27;20058;-86
2022/05/08 01:27:47;;;;;;;;;;;;;;;8.66;61.58;100392.78;5130866;27;20390;-87
2022/05/08 01:30:12;;;;;;;;;;;;;;;8.63;61.92;100395.41;5131298;27;19907;-87
2022/05/08 01:32:37;;;;;;;1.08;1.05;;;;;;;8.41;61.76;100366.34;5130307;27;20424;-86
2022/05/08 01:35:03;;;;;;;;;;;;;;;8.63;61.68;100397.16;5131348;27;20100;-88
2022/05/08 01:37:28;;;;;;;1.42;1.10;;;;;;;8.52;62.03;100400.63;5130540;27;19952;-88
2022/05/08 01:39:55;;;;;;;;;;;;;;;8.56;61.68;100397.16;5131005;27;20035;-88
2022/05/08 01:42:20;;;;;;;3.28;0.90;;;;;;;8.68;61.84;100405.94;5130702;27;19919;-87
2022/05/08 01:44:45;;;;;;;;;;;;;;;8.68;61.64;100396.31;5130449;27;20035;-88
2022/05/08 01:49:55;;;;;;;1.23;1.15;;;;;;;7.88;62.02;100325.78;5129985;27;20097;-87
2022/05/08 01:52:20;;;;;;;;;;;;;;;8.36;61.95;100397.00;5130553;27;20058;-88
2022/05/08 01:54:46;;;;;;;1.90;1.70;;;;;;;8.24;62.25;100361.00;5130567;27;19915;-87
2022/05/08 01:57:11;;;;;;;;;;;;;;;8.45;61.67;100390.97;5130497;27;20038;-87
2022/05/08 01:59:36;;;;;;;;;;;;;;;8.46;62.53;100391.84;5130310;27;19964;-87
2022/05/08 02:02:02;;;;;;;0.50;0.50;;;;;;;8.34;62.29;100376.84;5130087;27;20300;-88
2022/05/08 02:04:29;;;;;;;0.70;0.70;;;;;;;8.23;62.14;100345.25;5129913;27;20055;-87
2022/05/08 02:06:54;;;;;;;1.70;1.60;;;;;;;8.35;62.60;100358.44;5130369;27;20038;-86
2022/05/08 02:09:19;;;;;;;;;;;;;;;8.61;62.58;100394.53;5130305;27;20042;-87
2022/05/08 02:11:45;;;;;;;;;;;;;;;8.57;62.14;100391.03;5130095;27;20512;-87
2022/05/08 02:14:10;;;;;;;0.90;0.90;;;;;;;8.28;62.69;100366.28;5129969;27;20410;-87
2022/05/08 02:16:36;;;;;;;;;;;;;;;8.39;63.77;100399.66;5130037;27;20096;-87
2022/05/08 02:19:01;;;;;;;0.73;0.73;;;;;;;8.22;63.68;100377.66;5129346;27;19988;-87
2022/05/08 02:21:26;;;;;;;;;;;;;;;8.35;63.59;100400.50;5129899;27;20504;-88
2022/05/08 02:23:52;;;;;;;;;;;;;;;8.46;62.74;100394.47;5130427;27;20297;-88
2022/05/08 02:26:17;;;;;;;0.50;0.50;;;;;;;8.29;63.56;100389.94;5129266;27;19911;-87
2022/05/08 02:28:42;;;;;;;;;;;;;;;8.13;63.55;100398.66;5130119;27;20038;-87
2022/05/08 02:31:08;;;;;;;1.70;1.60;;;;;;;8.12;64.16;100387.22;5111109;27;19960;-85
2022/05/08 02:33:33;;;;;;;;;;;;;;;8.22;63.75;100398.69;5111028;27;20038;-86
2022/05/08 02:35:58;;;;;;;;;;;;;;;8.19;63.69;100398.69;5129694;27;20026;-86
2022/05/08 02:38:25;;;;;;;0.93;0.93;;;;;;;8.10;64.09;100398.63;5129528;27;19915;-86
2022/05/08 02:40:50;;;;;;;;;;;;;;;8.12;64.44;100402.13;5129845;27;20035;-86
2022/05/08 02:43:18;;;;;;;0.70;0.70;;;;;;;8.04;64.43;100400.31;5129151;27;20022;-87
2022/05/08 02:45:43;;;;;;;0.70;0.70;;;;;;;8.00;64.75;100388.06;5128648;27;20035;-86
2022/05/08 02:48:09;;;;;;;;;;;;;;;8.11;64.38;100403.00;5129568;27;20528;-86
2022/05/08 02:50:34;;;;;;;3.20;1.45;;;;;;;7.90;63.84;100370.47;5129584;27;19913;-86
2022/05/08 02:52:59;;;;;;;;;;;;;;;8.20;63.16;100396.06;5128524;27;20492;-86
2022/05/08 03:00:53;;;;;;;0.95;0.95;;;;;;;7.76;63.18;100353.75;5128710;27;20784;-87
2022/05/08 03:03:18;;;;;;;;;;;;;;;7.87;63.66;100407.22;5128946;27;20035;-86
2022/05/08 03:05:45;;;;;;;;;;;;;;;7.85;63.70;100401.94;5128851;27;19915;-86
2022/05/08 03:08:11;;;;;;;1.70;1.60;;;;;;;7.53;63.22;100354.44;5128992;27;19915;-87
2022/05/08 03:13:21;;;;;;;0.70;0.70;;;;;;;7.62;62.17;100364.13;5128843;27;20503;-87
2022/05/08 03:15:47;;;;;;;1.27;1.08;;;;;;;7.91;62.03;100416.00;5128145;27;20039;-87
2022/05/08 03:18:14;;;;;;;0.60;0.60;;;;;;;7.74;62.68;100411.50;5128650;27;20027;-88
2022/05/08 03:20:40;;;;;;;1.27;1.17;;;;;;;7.37;63.51;100381.41;5128438;27;20031;-87
2022/05/08 03:23:05;;;;;;;;;;;;;;;7.41;64.01;100419.97;5128938;27;20031;-87
2022/05/08 03:25:31;;;;;;;0.80;0.80;;;;;;;7.18;64.02;100373.38;5110064;27;19911;-88
2022/05/08 03:27:56;;;;;;;;;;;;;;;7.72;63.59;100418.47;5110697;27;20113;-87
2022/05/08 03:30:24;;;;;;;2.15;2.05;;;;;;;7.68;63.87;100399.19;5128128;27;19936;-87
2022/05/08 03:32:49;;;;;;;1.33;1.00;;;;;;;7.70;63.64;100405.31;5109831;27;20460;-86
2022/05/08 03:35:15;;;;;;;;;;;;;;;7.86;63.92;100421.22;5128976;27;20129;-90
2022/05/08 03:37:40;;;;;;;1.33;1.33;;;;;;;7.67;64.14;100399.19;5109656;27;20389;-86
2022/05/08 03:40:06;;;;;;;;;;;;;;;7.83;65.34;100424.72;5128993;27;20109;-87
2022/05/08 03:42:31;;;;;;;0.95;0.95;;;;;;;7.85;65.58;100425.59;5109790;27;20324;-87
2022/05/08 03:44:57;;;;;;;;;;;;;;;7.83;65.84;100429.97;5109826;27;20088;-89
2022/05/08 03:47:23;;;;;;;0.60;0.60;;;;;;;7.79;65.17;100406.28;5128207;27;19921;-87
2022/05/08 03:49:48;;;;;;;;;;;;;;;7.92;65.28;100434.38;5128468;27;20046;-87
2022/05/08 03:52:14;;;;;;;1.00;1.00;;;;;;;7.81;63.71;100389.66;5128162;27;20536;-88
2022/05/08 03:54:39;;;;;;;;;;;;;;;7.95;63.09;100439.66;5110051;27;20023;-87
2022/05/08 03:57:05;;;;;;;1.80;1.70;;;;;;;7.79;62.87;100401.91;5108962;27;20072;-88
2022/05/08 03:59:31;;;;;;;3.03;2.03;;;;;;;7.71;63.02;100406.22;5127523;27;20031;-88
2022/05/08 04:01:56;;;;;;;;;;;;;;;8.02;63.23;100441.47;5128003;27;20035;-86
2022/05/08 04:04:22;;;;;;;0.60;0.60;;;;;;;7.93;63.01;100409.88;5109429;27;20013;-89
2022/05/08 04:06:47;;;;;;;;;;;;;;;8.17;62.96;100442.44;5128110;27;20046;-88
2022/05/08 04:09:14;;;;;;;0.85;0.85;;;;;;;7.87;63.35;100392.31;5127794;27;19971;-88
2022/05/08 04:11:39;;;;;;;0.80;0.80;;;;;;;8.32;62.51;100428.53;5109488;27;20484;-87
2022/05/08 04:14:05;;;;;;;;;;;;;;;8.46;62.23;100454.94;5128086;27;20031;-88
2022/05/08 04:16:30;;;;;;;;;;;;;;;8.68;62.35;100455.91;5108881;28;19912;-87
2022/05/08 04:18:56;;;;;;;0.80;0.80;;;;;;;8.96;61.42;100446.41;5127646;27;19919;-88
2022/05/08 04:21:22;;;;;;;1.73;1.60;;;;;;;8.85;61.57;100421.78;5109138;28;20041;-86
2022/05/08 04:26:32;;;;;;;1.92;1.83;;;;;;;9.20;60.78;100423.66;5127852;27;19921;-88
2022/05/08 04:28:58;;;;;;;2.00;1.65;;;;;;;9.54;59.58;100440.38;5132146;27;20091;-86
2022/05/08 04:31:23;;;;;;;;;;;;;;;9.65;59.82;100453.56;5113823;27;20031;-88
2022/05/08 04:33:49;;;;;;;;;;;;;;;9.53;60.51;100448.28;5132228;27;19948;-88
2022/05/08 04:36:14;;;;;;;0.70;0.70;;;;;;;9.11;60.44;100383.31;5131263;27;19915;-87
2022/05/08 04:38:40;;;;;;;;;;;;;;;9.56;60.40;100448.28;5113877;27;20070;-88
2022/05/08 04:41:06;;;;;;;;;;;;;;;9.61;60.72;100457.09;5113412;27;20323;-87
2022/05/08 04:43:31;;;;;;;2.83;1.55;;;;;;;9.44;59.65;100407.03;5112597;27;19962;-88
2022/05/08 04:45:57;;;;;;;;;;;;;;;9.81;59.77;100450.09;5131225;27;20077;-86
2022/05/08 04:48:22;;;;;;;;;;;;;;;10.14;59.99;100450.94;5112269;27;19912;-87
2022/05/08 04:50:47;;;;;;;0.60;0.60;;;;;;;10.17;59.65;100447.44;5130492;27;19940;-87
2022/05/08 04:53:13;;;;;;;;;;;;;;;10.38;59.35;100451.81;5130907;27;20272;-87
2022/05/08 04:55:38;;;;;;;0.65;0.63;;;;;;;10.43;59.35;100428.94;5130450;27;19962;-86
2022/05/08 04:58:04;;;;;;;;;;;;;;;10.66;59.15;100447.34;5131598;27;20035;-87
2022/05/08 05:00:29;;;;;;;7.00;1.20;;;;;;;10.86;58.15;100434.06;5131817;27;19915;-85
2022/05/08 05:02:55;;;;;;;;;;;;;;;10.68;58.29;100449.97;5131516;27;20046;-86
2022/05/08 05:05:20;;;;;;;1.17;1.10;;;;;;;10.96;58.29;100448.09;5130874;27;19915;-86
2022/05/08 05:07:46;;;;;;;;;;;;;;;11.15;58.31;100448.88;5113003;27;20046;-86
2022/05/08 05:10:12;;;;;;;;;;;;;;;11.36;58.17;100439.09;5131538;27;20044;-87
2022/05/08 05:12:39;;;;;;;1.25;1.02;;;;;;;11.72;57.31;100440.56;5131152;27;19912;-87
2022/05/08 05:15:08;;;;;;;1.70;1.33;;;;;;;11.96;56.83;100450.13;5131134;27;20083;-85
2022/05/08 05:17:34;;;;;;;1.27;1.17;;;;;;;12.12;56.17;100452.63;5112052;27;20047;-87
2022/05/08 05:19:59;;;;;;;;;;;;;;;12.27;56.78;100455.13;5131426;27;20038;-87
2022/05/08 05:22:25;;;;;;;2.25;1.45;;;;;;;12.48;56.49;100443.44;5131272;27;20300;-88
2022/05/08 05:24:51;;;;;;;;;;;;;;;12.92;55.33;100449.09;5131066;27;20027;-87
2022/05/08 05:27:16;;;;;;;1.70;1.25;;;;;;;13.03;55.13;100419.84;5131101;27;19935;-86
2022/05/08 05:29:41;;;;;;;;;;;;;;;13.49;53.76;100450.13;5131038;27;20397;-88
2022/05/08 05:32:08;;;;;;;3.95;1.60;;;;;;;13.50;54.63;100422.72;5130745;27;19997;-85
2022/05/08 05:34:33;;;;;;;0.95;0.88;;;;;;;13.83;54.53;100446.97;5129927;27;20039;-87
2022/05/08 05:36:58;;;;;;;;;;;;;;;14.03;54.27;100443.97;5131107;27;20035;-86
2022/05/08 05:39:24;;;;;;;2.05;1.00;;;;;;;14.17;53.40;100419.84;5129669;27;19960;-86
2022/05/08 05:41:50;;;;;;;;;;;;;;;14.50;52.47;100447.53;5130167;27;20536;-86
2022/05/08 05:44:15;;;;;;;1.08;0.98;;;;;;;14.41;53.92;100445.94;5129975;27;19922;-87
2022/05/08 05:49:30;;;;;;;1.00;0.90;;;;;;;13.96;53.94;100396.34;5082154;27;19915;-88
2022/05/08 05:51:56;;;;;;;2.05;1.70;;;;;;;15.01;52.08;100450.09;5130128;27;20030;-87
2022/05/08 05:54:22;;;;;;;0.85;0.73;;;;;;;14.98;54.03;100439.53;5130668;27;20042;-88
2022/05/08 05:56:51;;;;;;;3.13;1.63;;;;;;;15.17;53.72;100439.13;5130191;27;20039;-87
2022/05/08 05:59:16;;;;;;;1.35;0.95;;;;;;;15.31;52.61;100446.78;5111807;27;20035;-87
2022/05/08 06:01:42;;;;;;;;;;;;;;;15.51;51.81;100438.34;5130562;27;20042;-87
2022/05/08 06:04:08;;;;;;;1.13;1.02;;;;;;;15.69;51.62;100411.31;5129818;27;19971;-88
2022/05/08 06:06:33;;;;;;;;;;;;;;;15.88;51.16;100434.81;5130327;27;20031;-87
2022/05/08 06:08:59;;;;;;;;;;;;;;;15.97;51.51;100436.38;5130739;27;19979;-89
2022/05/08 06:11:24;;;;;;;1.52;1.27;;;;;;;15.91;49.85;100366.44;5111663;27;19963;-89
2022/05/08 06:13:50;;;;;;;2.10;1.38;;;;;;;16.29;50.35;100425.75;5129950;27;20042;-88
2022/05/08 06:16:15;;;;;;;1.00;0.75;;;;;;;16.44;51.47;100439.56;5129687;27;20024;-88
2022/05/08 06:18:41;;;;;;;;;;;;;;;16.47;49.58;100439.50;5129826;27;20069;-87
2022/05/08 06:21:06;;;;;;;2.72;0.80;;;;;;;16.26;49.81;100406.31;5129754;27;19968;-87
2022/05/08 06:23:33;;;;;;;1.50;1.40;;;;;;;16.90;48.97;100416.97;5129832;27;20030;-88
2022/05/08 06:25:58;;;;;;;1.75;0.90;;;;;;;16.74;49.87;100410.31;5129503;27;20056;-89
2022/05/08 06:28:24;;;;;;;0.90;0.80;;;;;;;16.51;48.91;100414.50;5111402;27;20474;-89
2022/05/08 06:30:49;;;;;;;16.15;2.92;;;;;;;16.91;48.43;100412.53;5111542;27;20550;-87
2022/05/08 06:33:15;;;;;;;0.93;0.85;;;;;;;17.10;47.89;100389.72;5129454;27;20042;-87
2022/05/08 06:35:40;;;;;;;;;;;;;;;17.54;47.59;100434.56;5111432;27;20027;-92
2022/05/08 06:38:12;;;;;;;0.63;0.60;;;;;;;17.35;47.05;100407.63;5111199;27;19968;-87
2022/05/08 06:40:41;;;;;;;1.38;1.17;;;;;;;17.26;47.26;100402.59;5111035;27;20031;-88
2022/05/08 06:43:07;;;;;;;0.98;0.85;;;;;;;17.54;45.85;100402.56;5129123;27;20532;-88
2022/05/08 06:45:34;;;;;;;1.17;0.88;;;;;;;17.96;45.00;100431.44;5129076;27;20397;-89
2022/05/08 06:47:59;;;;;;;2.08;1.08;;;;;;;17.47;45.15;100420.56;5129104;27;20042;-86
2022/05/08 06:50:25;;;;;;;1.45;1.35;;;;;;;17.44;46.60;100423.34;5128528;27;20027;-87
2022/05/08 06:52:50;;;;;;;2.45;2.03;;;;;;;17.81;45.10;100384.78;5128889;27;20031;-87
2022/05/08 06:55:16;;;;;;;1.85;1.30;;;;;;;18.54;45.07;100427.66;5128810;27;20724;-84
2022/05/08 06:57:42;;;;;;;0.43;0.43;;;;;;;18.70;43.19;100391.41;5129272;27;20035;-86
2022/05/08 07:02:52;;;;;;;2.85;1.55;;;;;;;18.61;42.61;100398.00;5128925;27;20200;-86
2022/05/08 07:05:17;;;;;;;2.45;0.88;;;;;;;18.98;41.03;100400.22;5128790;27;20114;-84
2022/05/08 07:07:43;;;;;;;0.75;0.63;;;;;;;18.76;41.94;100420.56;5129159;27;20488;-86
2022/05/08 07:10:09;;;;;;;0.77;0.50;;;;;;;18.82;41.86;100390.09;5128689;27;20493;-86
2022/05/08 07:12:36;;;;;;;2.22;0.63;;;;;;;18.98;41.61;100393.06;5128940;27;20039;-87
2022/05/08 07:15:06;;;;;;;0.65;0.60;;;;;;;19.22;41.71;100411.78;5128832;27;20027;-86
2022/05/08 07:17:32;;;;;;;2.78;0.82;;;;;;;19.65;40.62;100394.00;5128738;27;20062;-86
2022/05/08 07:19:58;;;;;;;0.95;0.88;;;;;;;19.44;39.88;100377.88;5128868;27;20139;-85
2022/05/08 07:22:23;;;;;;;3.13;1.27;;;;;;;19.87;40.58;100398.47;5128780;27;20564;-86
2022/05/08 07:24:49;;;;;;;2.15;0.98;;;;;;;19.72;39.06;100408.84;5128184;27;20114;-86
2022/05/08 07:27:14;;;;;;;1.20;0.95;;;;;;;19.80;39.62;100377.31;5128475;27;20100;-86
2022/05/08 07:29:43;;;;;;;0.75;0.75;;;;;;;19.53;37.96;100391.81;5128402;27;20507;-85
2022/05/08 07:32:10;;;;;;;1.38;0.93;;;;;;;19.30;36.43;100393.63;5128635;27;20056;-87
2022/05/08 07:37:20;;;;;;;2.42;1.45;;;;;;;19.97;37.54;100386.41;5128336;27;20099;-88
2022/05/08 07:39:46;;;;;;;2.00;1.00;;;;;;;20.72;35.96;100404.53;5128318;27;20035;-89
2022/05/08 07:42:11;;;;;;;1.55;1.05;;;;;;;20.55;36.26;100373.13;5105689;28;20513;-89
2022/05/08 07:44:36;;;;;;;1.27;0.75;;;;;;;20.90;36.83;100370.66;5107674;28;20057;-87
2022/05/08 07:47:02;;;;;;;2.22;1.13;;;;;;;20.31;36.69;100391.19;5107496;28;20031;-87
2022/05/08 07:49:30;;;;;;;1.90;1.13;;;;;;;20.23;37.69;100384.41;5107391;28;20058;-86
2022/05/08 07:51:55;;;;;;;2.97;1.50;;;;;;;20.41;39.89;100383.59;5107696;28;20035;-85
2022/05/08 07:54:21;;;;;;;0.60;0.60;;;;;;;20.28;37.62;100361.84;5107195;28;20118;-86
2022/05/08 07:56:46;;;;;;;1.95;1.25;;;;;;;20.04;38.98;100378.06;5106840;28;20090;-87
2022/05/08 07:59:12;;;;;;;2.35;1.25;;;;;;;19.99;38.22;100366.69;5107839;28;20027;-86
2022/05/08 08:01:37;;;;;;;1.63;1.10;;;;;;;20.17;38.23;100381.09;5105391;28;20043;-86
2022/05/08 08:04:04;;;;;;;2.83;1.48;;;;;;;20.86;36.75;100357.47;5107159;28;20031;-86
2022/05/08 08:06:31;;;;;;;1.23;1.10;;;;;;;20.83;37.68;100353.09;5107222;28;20030;-86
2022/05/08 08:08:57;;;;;;;1.50;0.88;;;;;;;21.01;36.31;100345.16;5107380;28;20900;-86
2022/05/08 08:11:23;;;;;;;0.85;0.70;;;;;;;21.17;36.43;100375.63;5106387;28;20035;-86
2022/05/08 08:13:49;;;;;;;8.55;1.67;;;;;;;21.14;36.59;100365.06;5105727;28;20062;-87
2022/05/08 08:16:15;;;;;;;1.35;0.98;;;;;;;20.51;39.83;100378.69;5107068;28;20035;-86
2022/05/08 08:18:42;;;;;;;9.20;1.20;;;;;;;20.45;38.76;100392.38;5107237;28;20417;-85
2022/05/08 08:21:13;;;;;;;1.38;1.00;;;;;;;19.77;39.89;100361.38;5107103;28;20505;-90
2022/05/08 08:23:40;;;;;;;1.42;1.00;;;;;;;20.43;38.14;100360.28;5105055;28;20037;-86
2022/05/08 08:26:07;;;;;;;2.15;1.67;;;;;;;20.98;37.07;100375.66;5107120;28;20039;-88
2022/05/08 08:28:32;;;;;;;3.72;1.38;;;;;;;20.93;38.27;100362.47;5105951;28;20043;-88
2022/05/08 08:30:58;;;;;;;2.08;1.63;;;;;;;20.36;37.20;100348.13;5105838;28;20130;-86
2022/05/08 08:33:23;;;;;;;1.85;1.45;;;;;;;20.96;36.62;100382.03;5107294;28;20027;-86
2022/05/08 08:35:49;;;;;;;1.52;0.75;;;;;;;21.20;35.55;100363.91;5106975;28;20906;-88
2022/05/08 08:38:14;;;;;;;2.50;1.15;;;;;;;21.26;38.26;100360.91;5106456;28;20547;-88
2022/05/08 08:40:41;;;;;;;1.50;1.38;;;;;;;22.16;36.60;100368.03;5106830;28;20027;-87
2022/05/08 08:43:11;;;;;;;3.20;1.67;;;;;;;21.43;36.51;100355.56;5122268;28;20096;-86
2022/05/08 08:48:30;;;;;;;4.18;1.52;;;;;;;20.82;36.42;100346.03;5126624;28;21131;-87
2022/05/08 08:50:57;;;;;;;0.90;0.80;;;;;;;20.75;37.29;100376.72;5127245;28;20031;-87
2022/05/08 08:53:24;;;;;;;13.13;2.03;;;;;;;20.67;36.73;100360.16;5108861;28;20137;-87
2022/05/08 08:55:50;;;;;;;2.00;1.40;;;;;;;20.67;39.55;100318.13;5126991;28;20841;-88
2022/05/08 08:58:17;;;;;;;1.80;0.88;;;;;;;21.10;37.64;100329.47;5127547;28;20066;-88
2022/05/08 09:00:47;;;;;;;1.92;0.85;;;;;;;21.25;39.58;100346.59;5108673;28;20062;-88
2022/05/08 09:03:28;;;;;;;1.27;0.80;;;;;;;21.02;34.35;100333.47;5108509;28;20089;-87
2022/05/08 09:06:02;;;;;;;0.95;0.70;;;;;;;20.91;35.65;100353.63;5122585;28;20110;-88
2022/05/08 09:08:35;;;;;;;2.72;1.52;;;;;;;20.94;35.38;100344.56;5109036;28;20125;-86
2022/05/08 09:11:02;;;;;;;1.10;1.00;;;;;;;21.50;34.76;100347.25;5127206;28;20122;-88
2022/05/08 09:13:31;;;;;;;1.17;1.05;;;;;;;21.19;36.14;100340.69;5128913;27;20055;-88
2022/05/08 09:16:01;;;;;;;0.77;0.77;;;;;;;21.01;34.79;100337.09;5130172;27;20031;-87
2022/05/08 09:18:26;;;;;;;1.60;0.70;;;;;;;21.17;36.72;100315.75;5130547;27;20059;-87
2022/05/08 09:20:57;;;;;;;15.93;8.30;;;;;;;21.62;35.41;100323.31;5131059;27;20488;-86
2022/05/08 09:23:23;;;;;;;221.48;136.57;;;;;;;22.03;34.22;100334.69;5130604;27;20032;-86
2022/05/08 09:25:59;;;;;;;90.63;66.63;;;;;;;21.51;35.92;100311.44;5131158;27;20031;-87
2022/05/08 09:28:46;;;;;;;49.63;34.53;;;;;;;20.88;36.22;100340.38;5130626;27;20030;-87
2022/05/08 09:31:15;;;;;;;698.83;585.55;;;;;;;20.99;39.00;100305.00;5130521;27;20438;-85
2022/05/08 09:33:44;;;;;;;57.65;48.10;;;;;;;21.66;36.27;100334.81;5130526;27;20062;-87
2022/05/08 09:36:17;;;;;;;53.05;33.47;;;;;;;21.85;35.76;100334.72;5112035;27;20505;-86
2022/05/08 09:38:50;;;;;;;428.20;298.70;;;;;;;21.92;35.54;100337.94;5130527;27;20031;-85
2022/05/08 09:41:23;;;;;;;44.63;35.95;;;;;;;21.61;34.82;100328.78;5130613;27;20035;-86
2022/05/08 09:43:49;;;;;;;22.42;15.63;;;;;;;21.21;36.14;100307.47;5130799;27;20050;-85
2022/05/08 09:46:17;;;;;;;355.90;244.98;;;;;;;21.31;36.12;100317.75;5130628;27;20035;-86
2022/05/08 09:48:42;;;;;;;454.95;311.00;;;;;;;21.42;36.98;100307.34;5130011;27;20042;-86
2022/05/08 09:51:12;;;;;;;74.70;60.13;;;;;;;21.47;36.46;100318.72;5111585;27;20039;-86
2022/05/08 09:53:40;;;;;;;4.28;1.90;;;;;;;21.48;35.48;100298.13;5129797;27;20039;-85
2022/05/08 09:56:08;;;;;;;3.40;1.77;;;;;;;21.67;35.35;100282.81;5130175;27;20035;-87
2022/05/08 09:58:34;;;;;;;3.15;1.55;;;;;;;21.61;36.23;100308.19;5130259;27;20060;-86
2022/05/08 10:01:01;;;;;;;2.15;0.60;;;;;;;21.60;34.90;100266.19;5130552;27;20115;-85
2022/05/08 10:03:28;;;;;;;2.13;0.98;;;;;;;21.30;35.32;100279.31;5129685;27;20980;-85
2022/05/08 10:05:59;;;;;;;2.05;0.80;;;;;;;21.97;35.79;100298.31;5129663;27;20063;-85
2022/05/08 10:08:28;;;;;;;1.67;1.08;;;;;;;21.81;35.14;100287.47;5130125;27;20030;-84
2022/05/08 10:17:01;;;;;;;1.13;0.90;;;;;;;21.10;35.34;100250.78;5083711;27;20067;-84
2022/05/08 10:19:26;;;;;;;3.40;2.22;;;;;;;21.51;37.62;100289.94;5129812;27;20586;-86
2022/05/08 10:24:32;;;;;;;2.35;1.63;;;;;;;21.29;34.68;100285.63;5128118;27;20039;-85
2022/05/08 10:27:20;;;;;;;9.95;1.58;;;;;;;21.42;35.02;100280.50;5129610;27;20038;-85
2022/05/08 10:29:52;;;;;;;1.73;1.23;;;;;;;21.44;35.85;100271.44;5130015;27;20113;-85
2022/05/08 10:32:33;;;;;;;1.55;1.00;;;;;;;21.15;35.89;100272.03;5129588;27;20424;-87
2022/05/08 10:35:17;;;;;;;1.05;0.85;;;;;;;21.27;36.60;100274.97;5129653;27;20079;-84
2022/05/08 10:37:47;;;;;;;1.10;0.77;;;;;;;21.04;35.64;100245.78;5129290;27;20079;-86
2022/05/08 10:40:22;;;;;;;1.67;0.93;;;;;;;21.13;36.08;100265.88;5129550;27;20043;-85
2022/05/08 10:42:48;;;;;;;0.90;0.85;;;;;;;21.22;36.93;100243.97;5128815;27;20047;-85
2022/05/08 10:45:29;;;;;;;2.58;1.20;;;;;;;21.91;37.18;100256.50;5110087;27;20042;-86
2022/05/08 10:47:55;;;;;;;8.73;2.17;;;;;;;22.25;37.75;100238.56;5128702;27;20031;-86
2022/05/08 10:50:20;;;;;;;2.20;0.82;;;;;;;21.95;36.00;100215.13;5128944;27;20038;-85
2022/05/08 10:52:47;;;;;;;2.03;0.88;;;;;;;21.52;35.68;100235.31;5129144;27;20038;-86
2022/05/08 10:55:15;;;;;;;1.70;0.95;;;;;;;21.02;36.88;100235.13;5128763;27;20034;-87
2022/05/08 10:57:41;;;;;;;0.50;0.50;;;;;;;21.32;36.83;100233.63;5124286;27;20527;-87
2022/05/08 11:00:12;;;;;;;2.65;1.67;;;;;;;21.62;36.58;100220.47;5098054;28;20031;-87
2022/05/08 11:02:45;;;;;;;1.88;1.05;;;;;;;21.53;37.98;100200.34;5108738;28;20548;-87
2022/05/08 11:05:20;;;;;;;0.98;0.75;;;;;;;20.87;37.10;100187.63;5090297;28;20039;-88
2022/05/08 11:07:51;;;;;;;1.80;0.82;;;;;;;21.13;37.24;100236.38;5108068;28;20041;-88
2022/05/08 11:10:22;;;;;;;1.67;1.17;;;;;;;21.15;38.87;100199.59;5108283;28;20039;-88
2022/05/08 11:12:55;;;;;;;1.38;0.63;;;;;;;21.58;40.50;100186.66;5108384;28;20024;-88
2022/05/08 11:15:20;;;;;;;3.55;1.83;;;;;;;21.39;38.80;100176.00;5090242;28;20028;-88
2022/05/08 11:17:46;;;;;;;2.35;1.48;;;;;;;21.46;37.48;100209.66;5108019;28;20034;-87
2022/05/08 11:20:15;;;;;;;1.35;0.93;;;;;;;22.06;36.44;100213.66;5108855;28;20481;-88
2022/05/08 11:22:56;;;;;;;2.53;1.20;;;;;;;22.26;35.76;100200.00;5107502;27;20381;-87
2022/05/08 11:25:22;;;;;;;5.68;1.85;;;;;;;21.44;36.34;100215.09;5128629;27;20565;-89
2022/05/08 11:27:55;;;;;;;4.00;1.92;;;;;;;21.18;37.48;100194.97;5109706;27;20031;-87
2022/05/08 11:30:36;;;;;;;1.25;1.15;;;;;;;21.21;37.56;100212.69;5128620;27;20052;-89
2022/05/08 11:36:04;;;;;;;1.60;1.30;;;;;;;21.24;36.93;100212.53;5128125;27;20081;-89
2022/05/08 11:38:44;;;;;;;1.45;0.75;;;;;;;21.40;36.18;100197.41;5128077;27;20039;-87
2022/05/08 11:41:16;;;;;;;2.95;2.58;;;;;;;21.88;36.42;100189.53;5110050;27;20058;-88
2022/05/08 11:43:44;;;;;;;0.65;0.60;;;;;;;21.96;36.70;100170.31;5127425;27;20047;-88
2022/05/08 11:46:17;;;;;;;4.40;2.35;;;;;;;21.75;36.36;100170.56;5127949;27;20069;-89
2022/05/08 11:48:48;;;;;;;1.08;0.68;;;;;;;21.67;38.17;100162.03;5109658;27;20396;-88
2022/05/08 11:51:15;;;;;;;2.50;1.20;;;;;;;22.04;36.70;100172.59;5109374;27;20569;-87
2022/05/08 11:53:46;;;;;;;1.83;0.98;;;;;;;22.37;35.09;100143.00;5128932;27;20038;-87
2022/05/08 11:56:32;;;;;;;2.33;1.05;;;;;;;22.45;35.78;100182.88;5127705;27;20027;-88
2022/05/08 11:58:59;;;;;;;0.93;0.65;;;;;;;22.27;35.92;100169.47;5127960;27;20066;-87
2022/05/08 12:01:30;;;;;;;1.25;0.68;;;;;;;22.41;35.09;100159.81;5127896;27;20026;-86
2022/05/08 12:04:18;;;;;;;2.00;1.85;;;;;;;22.23;36.90;100164.38;5127728;27;20110;-86
2022/05/08 12:07:02;;;;;;;1.70;0.82;;;;;;;22.51;34.07;100166.41;5127251;27;20031;-89
2022/05/08 12:09:33;;;;;;;1.73;1.05;;;;;;;22.15;34.98;100122.69;5127957;27;20088;-86
2022/05/08 12:12:30;;;;;;;2.72;1.55;;;;;;;22.62;35.81;100152.34;5127486;27;20031;-86
2022/05/08 12:15:21;;;;;;;16.35;2.83;;;;;;;22.36;35.15;100106.34;5126916;27;20512;-87
2022/05/08 12:17:47;;;;;;;1.38;1.23;;;;;;;22.14;34.62;100158.56;5127349;27;20031;-86
2022/05/08 12:20:15;;;;;;;2.08;1.00;;;;;;;21.98;35.21;100114.69;5127981;27;20454;-88
2022/05/08 12:22:41;;;;;;;1.60;1.23;;;;;;;22.12;33.98;100116.63;5128300;27;20031;-86